Modesto, California
Current Conditions -  °F | °C
As of 5:53 PM on Friday 31 Oct 2014 (Local Time) from KMOD Reporting Station
Light Rain Light Rain  
Wind Chill: 58°   Ceiling: 7000
Heat Index: 58°   Visibility: 8mi
Dew Point: 54°   Wind: 3mph
Humidity: 87%   Direction: 180°S
Pressure: 29.76"   Gusts: NA
Location:  37.64°N, 120.99°W
Report Text: KMOD 010053Z 18003KT 8SM -RA OVC070 14/12 A2976 RMK AO2 SLP080 P0002 T01440122
Loading
Personal Weather Stations






























Interactive Weather Map
Tropical Storm Tracking
New forecast layout! Learn more

10-Day Weather Forecast

Advertisements
Track Severe Weather on mobile